KGTR/GTR METAR and TAF weather

Enter ICAO airport designator
Station Type Date Time Source
KGTR METAR 2020/02/19 13:56 UTC NOAA

KGTR 191356Z 36009KT 6SM BR OVC007 07/07 A3035 RMK AO2 RAE01 CIG 006V012 SLP284 P0000 T00670067


Station Type Date Time Source
KGTR Decoded METAR 2020/02/19 13:56 UTC NOAA

Columbus/West Point/Starkville, Golden Triangle Regional Airport, MS, United States (KGTR) 33-27N 088-35W
Feb 19, 2020 - 08:56 AM EST / 2020.02.19 1356 UTC
Wind: from the N (360 degrees) at 10 MPH (9 KT):0
Visibility: 6 mile(s):0
Sky conditions: overcast
Weather: mist
Precipitation last hour: A trace
Temperature: 44.1 F (6.7 C)
Dew Point: 44.1 F (6.7 C)
Relative Humidity: 100%
Pressure (altimeter): 30.35 in. Hg (1027 hPa)
ob: KGTR 191356Z 36009KT 6SM BR OVC007 07/07 A3035 RMK AO2 RAE01 CIG 006V012 SLP284 P0000 T00670067
cycle: 14

Station Type Date Time Source
KGTR TAF 2020/02/19 13:04 UTC NOAA

TAF
AMD KGTR 191301Z 1913/2012 36010G19KT 4SM -RA BR OVC007
FM191500 02010G19KT P6SM OVC025
FM192000 03009KT P6SM SCT025 OVC100
FM200600 04006KT 6SM -RA BR OVC025
FM200900 02009KT 6SM -RA BR OVC015

Example: see airport list